createdAt,value
2022-08-26T00:01:53.816Z,21.55
2022-08-26T00:04:21.660Z,21.62
2022-08-26T00:06:49.107Z,21.63
2022-08-26T00:09:16.815Z,21.59
2022-08-26T00:11:44.387Z,21.60
2022-08-26T00:14:12.205Z,21.69
2022-08-26T00:16:48.214Z,21.64
2022-08-26T00:19:16.475Z,21.57
2022-08-26T00:21:44.281Z,21.62
2022-08-26T00:24:11.925Z,21.66
2022-08-26T00:26:41.341Z,21.70
2022-08-26T00:29:09.435Z,21.71
2022-08-26T00:31:37.041Z,21.76
2022-08-26T00:34:05.974Z,21.74
2022-08-26T00:36:33.390Z,21.73
2022-08-26T00:39:00.953Z,21.75
2022-08-26T00:41:29.372Z,21.70
2022-08-26T00:43:57.422Z,21.71
2022-08-26T00:46:28.755Z,21.69
2022-08-26T00:49:00.721Z,21.67
2022-08-26T00:51:30.124Z,21.70
2022-08-26T00:54:05.345Z,21.65
2022-08-26T00:56:35.469Z,21.67
2022-08-26T00:59:04.279Z,21.67
2022-08-26T01:01:32.187Z,21.57
2022-08-26T01:04:01.085Z,21.61
2022-08-26T01:06:31.239Z,21.64
2022-08-26T01:08:58.782Z,21.66
2022-08-26T01:11:26.450Z,21.65
2022-08-26T01:13:55.666Z,21.61
2022-08-26T01:16:24.868Z,21.63
2022-08-26T01:18:53.657Z,21.65
2022-08-26T01:21:27.605Z,21.57
2022-08-26T01:23:58.881Z,21.57
2022-08-26T01:26:29.651Z,21.59
2022-08-26T01:28:58.498Z,21.54
2022-08-26T01:31:26.863Z,21.57
2022-08-26T01:34:00.318Z,21.55
2022-08-26T01:36:27.781Z,21.52
2022-08-26T01:38:55.441Z,21.52
2022-08-26T01:41:27.326Z,21.54
2022-08-26T01:43:57.257Z,21.52
2022-08-26T01:46:26.963Z,21.53
2022-08-26T01:48:56.042Z,21.52
2022-08-26T01:51:24.663Z,21.51
2022-08-26T01:53:52.054Z,21.52
2022-08-26T01:56:22.422Z,21.52
2022-08-26T01:58:53.679Z,21.35
2022-08-26T02:01:22.300Z,21.41
2022-08-26T02:03:52.214Z,21.37
2022-08-26T02:06:20.628Z,21.38
2022-08-26T02:08:49.485Z,21.38
2022-08-26T02:11:18.419Z,21.39
2022-08-26T02:13:47.146Z,21.43
2022-08-26T02:16:18.829Z,21.42
2022-08-26T02:18:48.872Z,21.39
2022-08-26T02:21:17.512Z,21.39
2022-08-26T02:23:45.591Z,21.41
2022-08-26T02:26:18.000Z,21.40
2022-08-26T02:28:51.254Z,21.27
2022-08-26T02:31:20.093Z,21.32
2022-08-26T02:33:48.503Z,21.34
2022-08-26T02:36:19.439Z,21.35
2022-08-26T02:38:46.832Z,21.37
2022-08-26T02:41:15.248Z,21.34
2022-08-26T02:43:45.509Z,21.32
2022-08-26T02:46:13.022Z,21.31
2022-08-26T02:48:50.325Z,20.53
2022-08-26T02:51:17.784Z,21.30
2022-08-26T02:53:45.183Z,21.25
2022-08-26T02:56:12.569Z,21.30
2022-08-26T02:58:39.972Z,21.30
2022-08-26T03:01:08.804Z,21.28
2022-08-26T03:03:36.261Z,21.31
2022-08-26T03:06:05.163Z,21.32
2022-08-26T03:08:32.605Z,21.32
2022-08-26T03:11:01.672Z,21.19
2022-08-26T03:13:29.542Z,21.23
2022-08-26T03:15:57.535Z,21.26
2022-08-26T03:18:24.979Z,21.05
2022-08-26T03:20:52.379Z,21.12
2022-08-26T03:23:21.218Z,21.21
2022-08-26T03:25:49.763Z,21.24
2022-08-26T03:28:18.170Z,21.25
2022-08-26T03:30:45.934Z,21.22
2022-08-26T03:33:14.324Z,21.26
2022-08-26T03:35:43.419Z,21.22
2022-08-26T03:38:11.153Z,21.22
2022-08-26T03:40:40.161Z,21.21
2022-08-26T03:43:09.873Z,21.25
2022-08-26T03:45:37.839Z,21.15
2022-08-26T03:48:05.353Z,21.08
2022-08-26T03:50:34.085Z,21.13
2022-08-26T03:53:01.899Z,21.13
2022-08-26T03:55:31.930Z,21.13
2022-08-26T03:58:02.017Z,21.09
2022-08-26T04:00:30.135Z,21.09
2022-08-26T04:02:57.693Z,21.14
2022-08-26T04:05:25.546Z,21.05
2022-08-26T04:07:53.160Z,20.90
2022-08-26T04:10:29.253Z,21.02
2022-08-26T04:12:59.019Z,20.95
2022-08-26T04:15:34.720Z,20.92
2022-08-26T04:18:02.195Z,20.88
2022-08-26T04:20:30.289Z,20.84
2022-08-26T04:22:57.675Z,20.92
2022-08-26T04:25:25.058Z,20.93
2022-08-26T04:27:52.978Z,20.89
2022-08-26T04:30:21.124Z,20.91
2022-08-26T04:32:49.958Z,20.90
2022-08-26T04:35:17.384Z,20.93
2022-08-26T04:37:44.874Z,20.89
2022-08-26T04:40:12.547Z,20.82
2022-08-26T04:42:39.985Z,20.85
2022-08-26T04:45:10.026Z,20.87
2022-08-26T04:47:37.486Z,20.89
2022-08-26T04:50:07.666Z,20.89
2022-08-26T04:52:35.512Z,20.86
2022-08-26T04:55:02.975Z,20.85
2022-08-26T04:57:33.625Z,20.86
2022-08-26T05:00:00.999Z,20.88
2022-08-26T05:02:28.974Z,20.82
2022-08-26T05:04:56.389Z,20.83
2022-08-26T05:07:25.187Z,20.80
2022-08-26T05:09:52.790Z,20.81
2022-08-26T05:12:20.188Z,20.77
2022-08-26T05:14:48.213Z,20.74
2022-08-26T05:17:15.770Z,19.62
2022-08-26T05:19:43.810Z,20.68
2022-08-26T05:22:13.082Z,20.66
2022-08-26T05:24:43.173Z,20.64
2022-08-26T05:27:11.705Z,20.60
2022-08-26T05:29:40.022Z,20.58
2022-08-26T05:32:07.721Z,19.52
2022-08-26T05:34:35.230Z,20.53
2022-08-26T05:37:06.499Z,20.52
2022-08-26T05:39:34.041Z,20.50
2022-08-26T05:42:04.001Z,20.55
2022-08-26T05:44:53.623Z,20.57
2022-08-26T05:47:18.882Z,20.54
2022-08-26T05:49:51.684Z,20.53
2022-08-26T05:52:19.395Z,20.59
2022-08-26T05:54:47.728Z,20.59
2022-08-26T05:57:16.853Z,20.68
2022-08-26T05:59:46.046Z,20.75
2022-08-26T06:02:13.443Z,20.83
2022-08-26T06:04:41.191Z,20.90
2022-08-26T06:07:11.635Z,20.83
2022-08-26T06:09:40.620Z,20.91
2022-08-26T06:12:08.280Z,20.95
2022-08-26T06:14:36.998Z,21.03
2022-08-26T06:17:04.557Z,21.08
2022-08-26T06:19:33.053Z,21.03
2022-08-26T06:22:23.264Z,21.08
2022-08-26T06:25:08.886Z,21.19
2022-08-26T06:27:37.327Z,21.16
2022-08-26T06:30:06.609Z,21.25
2022-08-26T06:32:34.532Z,21.30
2022-08-26T06:35:02.062Z,21.40
2022-08-26T06:37:29.584Z,21.49
2022-08-26T06:39:57.136Z,21.59
2022-08-26T06:42:25.117Z,21.69
2022-08-26T06:44:52.537Z,21.81
2022-08-26T06:47:21.247Z,21.84
2022-08-26T06:49:48.693Z,21.81
2022-08-26T06:52:23.097Z,21.80
2022-08-26T06:54:52.044Z,21.75
2022-08-26T06:57:20.478Z,21.71
2022-08-26T06:59:51.227Z,21.62
2022-08-26T07:02:19.437Z,21.63
2022-08-26T07:04:51.068Z,21.58
2022-08-26T07:07:18.761Z,21.56
2022-08-26T07:09:49.284Z,21.51
2022-08-26T07:12:20.393Z,21.54
2022-08-26T07:14:48.227Z,21.53
2022-08-26T07:17:15.790Z,21.50
2022-08-26T07:19:44.052Z,21.55
2022-08-26T07:22:12.784Z,21.39
2022-08-26T07:24:42.489Z,21.39
2022-08-26T07:27:11.226Z,21.47
2022-08-26T07:29:39.365Z,21.45
2022-08-26T07:32:07.614Z,21.48
2022-08-26T07:34:35.046Z,21.50
2022-08-26T07:37:02.502Z,21.53
2022-08-26T07:39:32.777Z,21.50
2022-08-26T07:42:01.311Z,21.55
2022-08-26T07:44:29.495Z,21.62
2022-08-26T07:46:57.133Z,21.64
2022-08-26T07:49:26.791Z,21.70
2022-08-26T07:51:55.608Z,21.78
2022-08-26T07:54:27.121Z,21.79
2022-08-26T07:56:56.309Z,21.74
2022-08-26T07:59:24.267Z,21.76
2022-08-26T08:01:51.945Z,21.76
2022-08-26T08:04:26.229Z,21.75
2022-08-26T08:06:54.852Z,21.77
2022-08-26T08:09:22.785Z,21.78
2022-08-26T08:11:51.277Z,21.84
2022-08-26T08:14:22.149Z,21.77
2022-08-26T08:16:51.110Z,21.72
2022-08-26T08:19:22.029Z,21.72
2022-08-26T08:21:49.653Z,21.79
2022-08-26T08:24:18.716Z,21.86
2022-08-26T08:26:46.487Z,21.89
2022-08-26T08:29:14.558Z,21.99
2022-08-26T08:31:59.906Z,22.04
2022-08-26T08:34:28.534Z,22.01
2022-08-26T08:36:57.074Z,22.05
2022-08-26T08:39:25.060Z,22.13
2022-08-26T08:42:04.781Z,22.19
2022-08-26T08:44:32.482Z,22.27
2022-08-26T08:47:04.730Z,22.36
2022-08-26T08:49:33.810Z,22.39
2022-08-26T08:52:03.223Z,22.27
2022-08-26T08:54:32.460Z,22.29
2022-08-26T08:57:04.668Z,22.35
2022-08-26T08:59:34.174Z,22.42
2022-08-26T09:02:11.124Z,22.47
2022-08-26T09:04:51.266Z,22.41
2022-08-26T09:07:21.358Z,22.41
2022-08-26T09:09:52.015Z,22.59
2022-08-26T09:12:29.305Z,22.63
2022-08-26T09:15:01.517Z,22.77
2022-08-26T09:17:36.281Z,22.89
2022-08-26T09:20:09.534Z,23.02
2022-08-26T09:22:37.997Z,22.96
2022-08-26T09:25:06.785Z,23.11
2022-08-26T09:27:43.343Z,23.30
2022-08-26T09:30:11.983Z,23.24
2022-08-26T09:32:41.693Z,23.21
2022-08-26T09:35:11.038Z,23.21
2022-08-26T09:37:42.547Z,23.18
2022-08-26T09:40:22.608Z,23.08
2022-08-26T09:43:06.100Z,23.01
2022-08-26T09:45:34.404Z,22.93
2022-08-26T09:48:04.211Z,22.13
2022-08-26T09:50:33.340Z,22.78
2022-08-26T09:53:12.777Z,22.69
2022-08-26T09:55:42.854Z,22.77
2022-08-26T09:58:13.342Z,22.73
2022-08-26T10:00:42.238Z,22.55
2022-08-26T10:03:17.327Z,22.56
2022-08-26T10:05:46.295Z,22.54
2022-08-26T10:08:24.558Z,22.58
2022-08-26T10:10:53.120Z,22.58
2022-08-26T10:13:24.464Z,22.64
2022-08-26T10:15:56.583Z,22.57
2022-08-26T10:18:34.090Z,22.61
2022-08-26T10:21:04.226Z,22.57
2022-08-26T10:26:13.679Z,22.55
2022-08-26T10:28:44.695Z,22.41
2022-08-26T10:31:27.900Z,22.38
2022-08-26T10:34:00.432Z,22.40
2022-08-26T10:37:10.836Z,22.39
2022-08-26T10:39:40.597Z,22.48
2022-08-26T10:42:10.965Z,22.59
2022-08-26T10:44:39.690Z,22.68
2022-08-26T10:47:15.827Z,22.65
2022-08-26T10:49:45.202Z,22.59
2022-08-26T10:52:16.447Z,22.79
2022-08-26T10:54:46.474Z,22.84
2022-08-26T10:57:18.000Z,22.92
2022-08-26T10:59:51.012Z,22.82
2022-08-26T11:02:24.903Z,22.92
2022-08-26T11:04:56.514Z,22.88
2022-08-26T11:07:34.039Z,22.83
2022-08-26T11:10:02.409Z,22.77
2022-08-26T11:12:49.593Z,22.86
2022-08-26T11:15:31.979Z,22.78
2022-08-26T11:18:02.026Z,22.59
2022-08-26T11:20:35.158Z,22.63
2022-08-26T11:23:22.211Z,22.59
2022-08-26T11:26:05.199Z,22.68
2022-08-26T11:28:34.078Z,22.82
2022-08-26T11:31:01.673Z,22.82
2022-08-26T11:33:59.437Z,22.69
2022-08-26T11:36:37.326Z,22.79
2022-08-26T11:39:13.987Z,22.85
2022-08-26T11:41:43.793Z,22.86
2022-08-26T11:44:12.322Z,22.75
2022-08-26T11:46:39.757Z,22.81
2022-08-26T11:49:21.937Z,22.85
2022-08-26T11:51:50.707Z,22.90
2022-08-26T11:54:29.266Z,22.83
2022-08-26T11:57:08.006Z,22.94
2022-08-26T11:59:40.196Z,23.06
2022-08-26T12:02:13.721Z,23.00
2022-08-26T12:04:43.215Z,23.26
2022-08-26T12:07:12.808Z,23.37
2022-08-26T12:09:51.908Z,23.39
2022-08-26T12:12:23.793Z,23.44
2022-08-26T12:15:06.149Z,23.57
2022-08-26T12:17:33.635Z,23.54
2022-08-26T12:20:01.071Z,23.41
2022-08-26T12:22:34.417Z,23.44
2022-08-26T12:25:04.809Z,23.20
2022-08-26T12:27:33.236Z,22.93
2022-08-26T12:30:03.520Z,22.82
2022-08-26T12:32:34.994Z,22.75
2022-08-26T12:37:40.398Z,22.59
2022-08-26T12:40:28.876Z,21.70
2022-08-26T12:42:57.210Z,22.82
2022-08-26T12:45:28.328Z,22.93
2022-08-26T12:47:59.588Z,23.18
2022-08-26T12:50:28.682Z,23.45
2022-08-26T12:52:59.838Z,23.41
2022-08-26T12:55:35.303Z,23.53
2022-08-26T12:58:12.565Z,23.62
2022-08-26T13:00:41.361Z,23.69
2022-08-26T13:03:23.871Z,23.57
2022-08-26T13:05:52.605Z,23.55
2022-08-26T13:08:27.619Z,23.53
2022-08-26T13:11:03.277Z,23.64
2022-08-26T13:13:30.675Z,23.71
2022-08-26T13:15:58.817Z,23.63
2022-08-26T13:18:26.328Z,23.44
2022-08-26T13:20:53.819Z,22.50
2022-08-26T13:23:23.212Z,23.50
2022-08-26T13:25:52.104Z,23.53
2022-08-26T13:28:19.521Z,23.50
2022-08-26T13:30:49.611Z,23.43
2022-08-26T13:33:18.503Z,23.35
2022-08-26T13:35:45.978Z,23.18
2022-08-26T13:38:22.375Z,23.13
2022-08-26T13:41:03.734Z,23.10
2022-08-26T13:43:31.358Z,23.05
2022-08-26T13:45:58.859Z,23.04
2022-08-26T13:48:26.347Z,23.01
2022-08-26T13:50:54.096Z,22.97
2022-08-26T13:53:21.660Z,22.84
2022-08-26T13:55:49.153Z,22.88
2022-08-26T13:58:18.138Z,22.91
2022-08-26T14:00:45.604Z,22.97
2022-08-26T14:03:14.447Z,23.04
2022-08-26T14:05:41.962Z,23.06
2022-08-26T14:08:09.619Z,22.83
2022-08-26T14:10:37.181Z,22.74
2022-08-26T14:13:04.825Z,22.67
2022-08-26T14:15:37.885Z,22.65
2022-08-26T14:18:06.749Z,22.70
2022-08-26T14:20:36.547Z,22.65
2022-08-26T14:23:20.725Z,22.65
2022-08-26T14:25:48.246Z,22.55
2022-08-26T14:28:15.710Z,22.54
2022-08-26T14:30:45.471Z,22.64
2022-08-26T14:33:14.130Z,22.72
2022-08-26T14:35:48.014Z,22.73
2022-08-26T14:38:17.535Z,22.72
2022-08-26T14:40:45.495Z,22.72
2022-08-26T14:43:13.734Z,22.64
2022-08-26T14:48:16.119Z,22.68
2022-08-26T14:50:43.634Z,22.65
2022-08-26T14:53:28.448Z,22.62
2022-08-26T14:55:55.885Z,22.67
2022-08-26T14:58:23.275Z,21.67
2022-08-26T15:00:50.643Z,22.64
2022-08-26T15:05:51.685Z,22.52
2022-08-26T15:08:20.668Z,22.68
2022-08-26T15:10:48.103Z,22.76
2022-08-26T15:13:15.497Z,22.72
2022-08-26T15:15:43.024Z,22.67
2022-08-26T15:18:10.666Z,22.68
2022-08-26T15:20:39.630Z,22.67
2022-08-26T15:23:07.377Z,22.84
2022-08-26T15:25:35.143Z,22.74
2022-08-26T15:28:02.704Z,22.89
2022-08-26T15:30:30.213Z,22.90
2022-08-26T15:32:57.614Z,22.97
2022-08-26T15:35:25.079Z,22.81
2022-08-26T15:40:26.552Z,22.42
2022-08-26T15:43:01.204Z,22.40
2022-08-26T15:45:38.991Z,22.35
2022-08-26T15:48:06.801Z,22.19
2022-08-26T15:50:34.686Z,22.28
2022-08-26T15:53:05.463Z,22.28
2022-08-26T15:55:32.846Z,22.20
2022-08-26T15:58:01.071Z,22.34
2022-08-26T16:00:29.238Z,22.46
2022-08-26T16:02:56.657Z,22.66
2022-08-26T16:05:24.130Z,22.99
2022-08-26T16:07:51.562Z,23.10
2022-08-26T16:10:20.490Z,23.12
2022-08-26T16:12:47.971Z,23.05
2022-08-26T16:15:15.455Z,23.01
2022-08-26T16:17:42.882Z,22.84
2022-08-26T16:20:10.497Z,22.79
2022-08-26T16:22:37.882Z,22.62
2022-08-26T16:25:07.253Z,22.55
2022-08-26T16:27:36.019Z,22.47
2022-08-26T16:30:05.494Z,22.33
2022-08-26T16:32:32.914Z,22.17
2022-08-26T16:35:00.349Z,22.15
2022-08-26T16:37:27.928Z,22.25
2022-08-26T16:39:55.393Z,22.29
2022-08-26T16:42:22.950Z,22.48
2022-08-26T16:44:52.988Z,22.65
2022-08-26T16:47:21.189Z,22.46
2022-08-26T16:49:48.655Z,22.48
2022-08-26T16:52:16.092Z,22.48
2022-08-26T16:54:43.572Z,22.36
2022-08-26T16:57:12.243Z,22.31
2022-08-26T16:59:40.461Z,22.28
2022-08-26T17:02:11.755Z,22.20
2022-08-26T17:04:39.450Z,22.14
2022-08-26T17:07:06.946Z,22.09
2022-08-26T17:09:35.007Z,22.10
2022-08-26T17:12:02.560Z,21.88
2022-08-26T17:14:30.315Z,21.68
2022-08-26T17:16:57.728Z,21.77
2022-08-26T17:19:27.190Z,21.78
2022-08-26T17:21:54.590Z,21.85
2022-08-26T17:24:22.071Z,21.81
2022-08-26T17:26:50.717Z,21.79
2022-08-26T17:29:22.914Z,21.80
2022-08-26T17:31:50.307Z,21.77
2022-08-26T17:34:17.753Z,21.62
2022-08-26T17:36:46.724Z,21.62
2022-08-26T17:39:14.150Z,21.48
2022-08-26T17:41:41.875Z,21.50
2022-08-26T17:44:09.328Z,21.53
2022-08-26T17:46:38.507Z,21.44
2022-08-26T17:49:06.369Z,21.40
2022-08-26T17:51:33.831Z,21.38
2022-08-26T17:54:03.746Z,21.34
2022-08-26T17:56:31.669Z,21.31
2022-08-26T17:59:02.368Z,21.19
2022-08-26T18:01:31.641Z,21.17
2022-08-26T18:04:00.631Z,21.17
2022-08-26T18:06:28.859Z,21.14
2022-08-26T18:08:56.578Z,21.08
2022-08-26T18:11:25.376Z,21.01
2022-08-26T18:13:53.367Z,21.03
2022-08-26T18:16:21.030Z,21.05
2022-08-26T18:18:49.593Z,20.84
2022-08-26T18:21:19.212Z,20.81
2022-08-26T18:23:47.679Z,20.84
2022-08-26T18:26:19.244Z,20.90
2022-08-26T18:28:48.347Z,20.94
2022-08-26T18:31:16.150Z,20.78
2022-08-26T18:33:43.994Z,19.51
2022-08-26T18:36:15.895Z,20.66
2022-08-26T18:38:43.343Z,20.60
2022-08-26T18:41:10.763Z,20.60
2022-08-26T18:43:38.176Z,20.54
2022-08-26T18:46:08.152Z,20.50
2022-08-26T18:48:36.671Z,20.56
2022-08-26T18:51:04.728Z,20.55
2022-08-26T18:53:32.678Z,20.47
2022-08-26T18:56:01.825Z,20.38
2022-08-26T18:58:29.237Z,20.28
2022-08-26T19:00:56.690Z,20.35
2022-08-26T19:03:25.418Z,20.32
2022-08-26T19:05:52.966Z,20.33
2022-08-26T19:08:20.687Z,20.27
2022-08-26T19:10:48.317Z,20.26
2022-08-26T19:13:16.229Z,20.28
2022-08-26T19:15:46.251Z,20.26
2022-08-26T19:18:14.843Z,20.15
2022-08-26T19:20:46.772Z,19.95
2022-08-26T19:23:30.470Z,19.95
2022-08-26T19:25:59.064Z,19.83
2022-08-26T19:28:26.521Z,19.80
2022-08-26T19:30:54.134Z,19.80
2022-08-26T19:33:21.566Z,19.66
2022-08-26T19:35:50.745Z,19.63
2022-08-26T19:38:18.366Z,19.58
2022-08-26T19:40:45.761Z,19.53
2022-08-26T19:43:13.262Z,19.50
2022-08-26T19:45:42.216Z,19.48
2022-08-26T19:48:11.456Z,19.44
2022-08-26T19:50:39.313Z,19.37
2022-08-26T19:53:09.144Z,19.39
2022-08-26T19:55:37.060Z,19.35
2022-08-26T19:58:04.580Z,19.29
2022-08-26T20:00:33.702Z,19.28
2022-08-26T20:03:01.677Z,19.25
2022-08-26T20:05:29.247Z,19.18
2022-08-26T20:07:58.213Z,19.17
2022-08-26T20:10:27.113Z,19.12
2022-08-26T20:12:54.574Z,19.06
2022-08-26T20:15:23.017Z,19.00
2022-08-26T20:17:51.296Z,18.89
2022-08-26T20:20:36.894Z,18.84
2022-08-26T20:23:05.208Z,18.82
2022-08-26T20:25:34.673Z,18.77
2022-08-26T20:28:02.325Z,18.72
2022-08-26T20:30:29.859Z,18.65
2022-08-26T20:32:57.463Z,18.57
2022-08-26T20:35:25.190Z,18.57
2022-08-26T20:37:52.841Z,18.53
2022-08-26T20:40:21.370Z,18.47
2022-08-26T20:42:50.470Z,18.40
2022-08-26T20:45:17.910Z,18.33
2022-08-26T20:47:45.522Z,18.27
2022-08-26T20:50:13.192Z,18.23
2022-08-26T20:52:41.003Z,18.19
2022-08-26T20:55:09.153Z,18.10
2022-08-26T20:57:37.300Z,18.07
2022-08-26T21:00:07.401Z,18.03
2022-08-26T21:02:34.947Z,18.02
2022-08-26T21:05:02.731Z,17.97
2022-08-26T21:07:30.261Z,17.92
2022-08-26T21:09:58.023Z,17.90
2022-08-26T21:12:26.868Z,17.88
2022-08-26T21:14:54.870Z,17.87
2022-08-26T21:17:23.818Z,17.80
2022-08-26T21:19:51.266Z,17.80
2022-08-26T21:22:18.728Z,17.79
2022-08-26T21:24:46.198Z,17.76
2022-08-26T21:27:13.620Z,17.74
2022-08-26T21:29:45.079Z,17.69
2022-08-26T21:32:16.607Z,17.69
2022-08-26T21:34:45.492Z,17.68
2022-08-26T21:37:16.884Z,17.62
2022-08-26T21:39:44.867Z,17.60
2022-08-26T21:42:12.274Z,17.54
2022-08-26T21:44:39.747Z,17.55
2022-08-26T21:47:07.427Z,17.57
2022-08-26T21:49:34.872Z,17.57
2022-08-26T21:52:04.549Z,17.54
2022-08-26T21:54:32.271Z,17.54
2022-08-26T21:56:59.664Z,17.54
2022-08-26T21:59:27.042Z,17.57
2022-08-26T22:01:54.620Z,17.63
2022-08-26T22:04:22.237Z,17.59
2022-08-26T22:06:50.680Z,17.60
2022-08-26T22:09:20.012Z,17.62
2022-08-26T22:11:47.625Z,17.64
2022-08-26T22:14:15.696Z,17.67
2022-08-26T22:16:43.175Z,17.73
2022-08-26T22:19:18.199Z,17.78
2022-08-26T22:21:46.194Z,17.82
2022-08-26T22:24:13.603Z,17.88
2022-08-26T22:26:43.071Z,17.91
2022-08-26T22:29:10.533Z,17.95
2022-08-26T22:31:38.908Z,17.98
2022-08-26T22:34:07.541Z,18.02
2022-08-26T22:36:35.476Z,18.04
2022-08-26T22:39:10.870Z,18.08
2022-08-26T22:41:38.304Z,18.09
2022-08-26T22:44:07.508Z,18.12
2022-08-26T22:46:36.665Z,18.16
2022-08-26T22:49:04.967Z,18.18
2022-08-26T22:51:33.295Z,18.19
2022-08-26T22:54:00.715Z,18.20
2022-08-26T22:56:28.389Z,18.24
2022-08-26T22:58:55.779Z,18.24
2022-08-26T23:01:24.717Z,18.23
2022-08-26T23:03:52.194Z,18.29
2022-08-26T23:06:19.662Z,18.31
2022-08-26T23:08:47.381Z,18.32
2022-08-26T23:11:15.785Z,18.31
2022-08-26T23:13:43.293Z,18.30
2022-08-26T23:16:12.324Z,18.35
2022-08-26T23:18:41.716Z,18.41
2022-08-26T23:21:09.400Z,18.38
2022-08-26T23:23:38.274Z,18.39
2022-08-26T23:26:06.879Z,18.40
2022-08-26T23:28:34.637Z,18.44
2022-08-26T23:31:02.083Z,18.48
2022-08-26T23:33:49.571Z,18.48
2022-08-26T23:36:18.407Z,18.47
2022-08-26T23:38:53.054Z,18.43
2022-08-26T23:41:20.812Z,18.50
2022-08-26T23:43:48.173Z,18.52
2022-08-26T23:46:15.873Z,18.52
2022-08-26T23:48:43.291Z,18.56
2022-08-26T23:51:28.034Z,18.54
2022-08-26T23:53:57.787Z,18.57
2022-08-26T23:56:26.751Z,18.57
2022-08-26T23:58:54.758Z,18.56
